createdAt,value
2018-12-30T00:00:13.025Z,8.36
2018-12-30T00:01:13.025Z,8.37
2018-12-30T00:02:13.009Z,8.34
2018-12-30T00:03:12.999Z,8.37
2018-12-30T00:04:12.992Z,8.41
2018-12-30T00:05:12.986Z,8.46
2018-12-30T00:06:12.974Z,8.37
2018-12-30T00:07:12.968Z,8.48
2018-12-30T00:08:12.960Z,8.38
2018-12-30T00:09:12.949Z,8.36
2018-12-30T00:10:12.944Z,8.46
2018-12-30T00:11:12.939Z,8.48
2018-12-30T00:12:12.928Z,8.45
2018-12-30T00:13:12.919Z,8.42
2018-12-30T00:14:12.911Z,8.41
2018-12-30T00:15:12.903Z,8.37
2018-12-30T00:16:12.896Z,8.48
2018-12-30T00:17:12.891Z,8.45
2018-12-30T00:18:12.880Z,8.51
2018-12-30T00:19:12.872Z,8.53
2018-12-30T00:20:12.864Z,8.48
2018-12-30T00:21:12.853Z,8.48
2018-12-30T00:22:12.851Z,8.46
2018-12-30T00:23:12.841Z,8.52
2018-12-30T00:24:12.833Z,8.48
2018-12-30T00:25:12.825Z,8.46
2018-12-30T00:26:12.816Z,8.49
2018-12-30T00:27:12.809Z,8.55
2018-12-30T00:28:12.803Z,8.51
2018-12-30T00:29:12.791Z,8.48
2018-12-30T00:30:12.792Z,8.52
2018-12-30T00:31:12.777Z,8.49
2018-12-30T00:32:12.768Z,8.55
2018-12-30T00:33:12.763Z,8.56
2018-12-30T00:34:12.753Z,8.64
2018-12-30T00:35:12.744Z,8.52
2018-12-30T00:36:12.736Z,8.64
2018-12-30T00:37:12.729Z,8.52
2018-12-30T00:38:12.721Z,8.56
2018-12-30T00:39:12.713Z,8.55
2018-12-30T00:40:12.707Z,8.61
2018-12-30T00:41:12.707Z,8.56
2018-12-30T00:42:12.691Z,8.61
2018-12-30T00:43:12.685Z,8.61
2018-12-30T00:44:12.675Z,8.60
2018-12-30T00:45:12.665Z,8.61
2018-12-30T00:46:12.658Z,8.70
2018-12-30T00:47:12.654Z,8.66
2018-12-30T00:48:12.642Z,8.70
2018-12-30T00:49:12.636Z,8.70
2018-12-30T00:50:12.631Z,8.63
2018-12-30T00:51:16.987Z,8.58
2018-12-30T00:52:12.617Z,8.70
2018-12-30T00:53:12.607Z,8.61
2018-12-30T00:54:12.600Z,8.61
2018-12-30T00:55:12.591Z,8.69
2018-12-30T00:56:12.582Z,8.67
2018-12-30T00:57:12.571Z,8.70
2018-12-30T00:58:12.567Z,8.71
2018-12-30T00:59:12.559Z,8.66
2018-12-30T01:00:12.550Z,8.71
2018-12-30T01:01:12.545Z,8.74
2018-12-30T01:02:12.532Z,8.70
2018-12-30T01:03:12.527Z,8.69
2018-12-30T01:04:12.519Z,8.73
2018-12-30T01:05:12.514Z,8.79
2018-12-30T01:06:12.501Z,8.69
2018-12-30T01:07:12.495Z,8.81
2018-12-30T01:08:12.491Z,8.71
2018-12-30T01:09:12.478Z,8.76
2018-12-30T01:10:12.472Z,8.76
2018-12-30T01:11:12.464Z,8.73
2018-12-30T01:12:12.458Z,8.88
2018-12-30T01:13:12.451Z,8.87
2018-12-30T01:14:12.442Z,8.79
2018-12-30T01:15:12.438Z,8.89
2018-12-30T01:16:12.426Z,8.82
2018-12-30T01:17:12.416Z,8.89
2018-12-30T01:18:12.412Z,9.02
2018-12-30T01:19:12.402Z,9.00
2018-12-30T01:20:12.398Z,9.02
2018-12-30T01:21:12.388Z,9.10
2018-12-30T01:22:12.382Z,8.97
2018-12-30T01:23:12.372Z,8.94
2018-12-30T01:24:12.375Z,9.08
2018-12-30T01:25:12.357Z,9.08
2018-12-30T01:26:12.349Z,9.08
2018-12-30T01:27:12.348Z,9.04
2018-12-30T01:28:12.333Z,9.13
2018-12-30T01:29:12.329Z,9.19
2018-12-30T01:30:12.320Z,9.14
2018-12-30T01:31:12.311Z,9.14
2018-12-30T01:32:12.303Z,9.23
2018-12-30T01:33:12.296Z,9.16
2018-12-30T01:34:12.293Z,9.25
2018-12-30T01:35:12.284Z,9.13
2018-12-30T01:36:12.276Z,9.22
2018-12-30T01:37:12.267Z,9.19
2018-12-30T01:38:12.259Z,9.21
2018-12-30T01:39:12.255Z,9.22
2018-12-30T01:40:12.245Z,9.22
2018-12-30T01:41:12.240Z,9.19
2018-12-30T01:42:12.234Z,9.18
2018-12-30T01:43:12.224Z,9.22
2018-12-30T01:44:12.217Z,9.14
2018-12-30T01:45:12.209Z,9.19
2018-12-30T01:46:12.203Z,9.26
2018-12-30T01:47:12.195Z,9.18
2018-12-30T01:48:12.191Z,9.21
2018-12-30T01:49:12.179Z,9.21
2018-12-30T01:50:12.176Z,9.19
2018-12-30T01:51:12.179Z,9.21
2018-12-30T01:52:12.160Z,9.22
2018-12-30T01:53:12.156Z,9.19
2018-12-30T01:54:12.143Z,9.25
2018-12-30T01:55:12.137Z,9.28
2018-12-30T01:56:12.130Z,9.29
2018-12-30T01:57:12.121Z,9.26
2018-12-30T01:58:12.113Z,9.29
2018-12-30T01:59:12.108Z,9.32
2018-12-30T02:00:12.099Z,9.28
2018-12-30T02:01:12.091Z,9.26
2018-12-30T02:02:12.083Z,9.29
2018-12-30T02:03:12.106Z,9.26
2018-12-30T02:04:12.070Z,9.26
2018-12-30T02:05:12.061Z,9.29
2018-12-30T02:06:12.057Z,9.18
2018-12-30T02:07:12.047Z,9.19
2018-12-30T02:08:12.042Z,9.25
2018-12-30T02:09:12.034Z,9.19
2018-12-30T02:10:12.023Z,9.25
2018-12-30T02:11:12.021Z,9.28
2018-12-30T02:12:12.023Z,9.31
2018-12-30T02:13:12.002Z,9.34
2018-12-30T02:14:11.994Z,9.43
2018-12-30T02:15:11.989Z,9.41
2018-12-30T02:16:11.984Z,9.37
2018-12-30T02:17:11.976Z,9.34
2018-12-30T02:18:11.966Z,9.36
2018-12-30T02:19:11.957Z,9.36
2018-12-30T02:20:11.958Z,9.34
2018-12-30T02:21:11.944Z,9.39
2018-12-30T02:22:11.939Z,9.41
2018-12-30T02:23:11.943Z,9.46
2018-12-30T02:24:11.922Z,9.41
2018-12-30T02:25:11.913Z,9.46
2018-12-30T02:26:11.909Z,9.46
2018-12-30T02:27:11.902Z,9.39
2018-12-30T02:28:11.892Z,9.39
2018-12-30T02:29:11.885Z,9.39
2018-12-30T02:30:11.883Z,9.48
2018-12-30T02:31:11.869Z,9.47
2018-12-30T02:32:11.862Z,9.39
2018-12-30T02:33:11.854Z,9.39
2018-12-30T02:34:11.867Z,9.37
2018-12-30T02:35:11.842Z,9.36
2018-12-30T02:36:11.843Z,9.37
2018-12-30T02:37:11.826Z,9.43
2018-12-30T02:38:11.822Z,9.46
2018-12-30T02:39:11.812Z,9.40
2018-12-30T02:40:11.807Z,9.36
2018-12-30T02:41:11.801Z,9.46
2018-12-30T02:42:11.792Z,9.40
2018-12-30T02:43:11.787Z,9.32
2018-12-30T02:44:11.780Z,9.40
2018-12-30T02:45:11.771Z,9.43
2018-12-30T02:46:11.770Z,9.37
2018-12-30T02:47:11.752Z,9.47
2018-12-30T02:48:11.747Z,9.47
2018-12-30T02:49:11.741Z,9.46
2018-12-30T02:50:11.733Z,9.47
2018-12-30T02:51:11.726Z,9.41
2018-12-30T02:52:11.726Z,9.41
2018-12-30T02:53:11.712Z,9.36
2018-12-30T02:54:11.705Z,9.46
2018-12-30T02:55:11.696Z,9.48
2018-12-30T02:56:11.687Z,9.48
2018-12-30T02:57:11.681Z,9.46
2018-12-30T02:58:11.674Z,9.47
2018-12-30T02:59:11.668Z,9.47
2018-12-30T03:00:11.660Z,9.54
2018-12-30T03:01:11.654Z,9.44
2018-12-30T03:02:11.642Z,9.44
2018-12-30T03:03:11.635Z,9.44
2018-12-30T03:04:11.631Z,9.43
2018-12-30T03:05:11.620Z,9.50
2018-12-30T03:06:11.614Z,9.51
2018-12-30T03:07:11.609Z,9.58
2018-12-30T03:08:11.600Z,9.50
2018-12-30T03:09:11.596Z,9.56
2018-12-30T03:10:11.585Z,9.59
2018-12-30T03:11:11.580Z,9.56
2018-12-30T03:12:11.572Z,9.55
2018-12-30T03:13:11.567Z,9.61
2018-12-30T03:14:11.613Z,9.55
2018-12-30T03:15:11.556Z,9.59
2018-12-30T03:16:11.542Z,9.51
2018-12-30T03:17:11.535Z,9.55
2018-12-30T03:18:11.530Z,9.61
2018-12-30T03:19:11.522Z,9.58
2018-12-30T03:20:11.515Z,9.55
2018-12-30T03:21:11.508Z,9.54
2018-12-30T03:22:11.501Z,9.58
2018-12-30T03:23:11.495Z,9.62
2018-12-30T03:24:11.487Z,9.55
2018-12-30T03:25:11.483Z,9.59
2018-12-30T03:26:11.474Z,9.59
2018-12-30T03:27:11.467Z,9.56
2018-12-30T03:28:11.459Z,9.59
2018-12-30T03:29:11.449Z,9.62
2018-12-30T03:30:11.463Z,9.62
2018-12-30T03:31:11.438Z,9.56
2018-12-30T03:32:11.430Z,9.68
2018-12-30T03:33:11.425Z,9.66
2018-12-30T03:34:11.416Z,9.73
2018-12-30T03:35:11.410Z,9.64
2018-12-30T03:36:11.402Z,9.72
2018-12-30T03:37:11.394Z,9.72
2018-12-30T03:38:11.385Z,9.66
2018-12-30T03:39:11.382Z,9.72
2018-12-30T03:40:11.379Z,9.72
2018-12-30T03:41:11.362Z,9.69
2018-12-30T03:42:11.356Z,9.68
2018-12-30T03:43:11.353Z,9.76
2018-12-30T03:44:11.345Z,9.66
2018-12-30T03:45:11.333Z,9.64
2018-12-30T03:46:11.329Z,9.59
2018-12-30T03:47:11.322Z,9.58
2018-12-30T03:48:11.316Z,9.68
2018-12-30T03:49:11.307Z,9.64
2018-12-30T03:50:11.300Z,9.68
2018-12-30T03:51:11.293Z,9.73
2018-12-30T03:52:11.294Z,9.65
2018-12-30T03:53:11.276Z,9.68
2018-12-30T03:54:11.272Z,9.66
2018-12-30T03:55:11.266Z,9.64
2018-12-30T03:56:11.259Z,9.68
2018-12-30T03:57:11.458Z,9.73
2018-12-30T03:58:11.244Z,9.68
2018-12-30T03:59:11.236Z,9.72
2018-12-30T04:00:11.231Z,9.66
2018-12-30T04:01:11.224Z,9.66
2018-12-30T04:02:11.216Z,9.73
2018-12-30T04:03:11.209Z,9.72
2018-12-30T04:04:11.200Z,9.69
2018-12-30T04:05:11.194Z,9.74
2018-12-30T04:06:11.187Z,9.66
2018-12-30T04:07:11.179Z,9.69
2018-12-30T04:08:11.172Z,9.74
2018-12-30T04:09:11.165Z,9.83
2018-12-30T04:10:11.161Z,9.77
2018-12-30T04:11:11.150Z,9.72
2018-12-30T04:12:11.144Z,9.76
2018-12-30T04:13:11.134Z,9.76
2018-12-30T04:14:11.129Z,9.69
2018-12-30T04:15:11.126Z,9.73
2018-12-30T04:16:11.127Z,9.73
2018-12-30T04:17:11.108Z,9.79
2018-12-30T04:18:38.992Z,9.68
2018-12-30T04:19:11.094Z,9.83
2018-12-30T04:20:11.087Z,9.86
2018-12-30T04:21:11.076Z,9.82
2018-12-30T04:22:16.864Z,9.66
2018-12-30T04:23:11.066Z,9.69
2018-12-30T04:24:11.058Z,9.76
2018-12-30T04:25:11.062Z,9.73
2018-12-30T04:26:11.044Z,9.73
2018-12-30T04:27:11.036Z,9.66
2018-12-30T04:28:11.028Z,9.72
2018-12-30T04:29:11.020Z,9.68
2018-12-30T04:30:11.014Z,9.73
2018-12-30T04:31:11.007Z,9.69
2018-12-30T04:32:11.000Z,9.69
2018-12-30T04:33:11.003Z,9.72
2018-12-30T04:34:10.987Z,9.68
2018-12-30T04:35:10.980Z,9.62
2018-12-30T04:36:10.973Z,9.66
2018-12-30T04:37:10.967Z,9.66
2018-12-30T04:38:10.956Z,9.73
2018-12-30T04:39:10.951Z,9.69
2018-12-30T04:40:10.945Z,9.66
2018-12-30T04:41:10.935Z,9.64
2018-12-30T04:42:10.926Z,9.68
2018-12-30T04:43:10.919Z,9.76
2018-12-30T04:44:10.913Z,9.69
2018-12-30T04:45:10.906Z,9.72
2018-12-30T04:46:10.898Z,9.65
2018-12-30T04:47:10.890Z,9.68
2018-12-30T04:48:10.887Z,9.65
2018-12-30T04:49:10.878Z,9.72
2018-12-30T04:50:10.868Z,9.72
2018-12-30T04:51:10.861Z,9.68
2018-12-30T04:52:10.856Z,9.69
2018-12-30T04:53:10.846Z,9.62
2018-12-30T04:54:10.840Z,9.56
2018-12-30T04:55:10.834Z,9.58
2018-12-30T04:56:10.829Z,9.54
2018-12-30T04:57:10.820Z,9.59
2018-12-30T04:58:10.814Z,9.55
2018-12-30T04:59:10.803Z,9.56
2018-12-30T05:00:10.795Z,9.46
2018-12-30T05:01:10.789Z,9.43
2018-12-30T05:02:10.781Z,9.48
2018-12-30T05:03:10.782Z,9.61
2018-12-30T05:04:10.770Z,9.50
2018-12-30T05:05:10.761Z,9.43
2018-12-30T05:06:10.753Z,9.43
2018-12-30T05:07:10.745Z,9.48
2018-12-30T05:08:10.738Z,9.47
2018-12-30T05:09:10.730Z,9.48
2018-12-30T05:10:10.725Z,9.51
2018-12-30T05:11:10.718Z,9.47
2018-12-30T05:12:10.710Z,9.47
2018-12-30T05:13:10.701Z,9.44
2018-12-30T05:14:10.695Z,9.44
2018-12-30T05:15:10.686Z,9.43
2018-12-30T05:16:10.678Z,9.48
2018-12-30T05:17:10.672Z,9.41
2018-12-30T05:18:10.664Z,9.48
2018-12-30T05:19:10.656Z,9.50
2018-12-30T05:20:10.647Z,9.43
2018-12-30T05:21:10.642Z,9.46
2018-12-30T05:22:10.634Z,9.48
2018-12-30T05:23:10.627Z,9.41
2018-12-30T05:24:10.674Z,9.39
2018-12-30T05:25:10.613Z,9.36
2018-12-30T05:26:10.605Z,9.40
2018-12-30T05:27:10.601Z,9.37
2018-12-30T05:28:10.599Z,9.37
2018-12-30T05:29:10.582Z,9.37
2018-12-30T05:30:10.575Z,9.41
2018-12-30T05:31:10.569Z,9.36
2018-12-30T05:32:10.562Z,9.39
2018-12-30T05:33:10.553Z,9.46
2018-12-30T05:34:10.548Z,9.40
2018-12-30T05:35:10.540Z,9.37
2018-12-30T05:36:10.531Z,9.37
2018-12-30T05:37:10.523Z,9.37
2018-12-30T05:38:10.515Z,9.36
2018-12-30T05:39:10.510Z,9.34
2018-12-30T05:40:10.501Z,9.36
2018-12-30T05:41:10.493Z,9.32
2018-12-30T05:42:10.489Z,9.43
2018-12-30T05:43:10.480Z,9.46
2018-12-30T05:44:10.471Z,9.46
2018-12-30T05:45:10.465Z,9.48
2018-12-30T05:46:10.455Z,9.43
2018-12-30T05:47:10.449Z,9.32
2018-12-30T05:48:10.441Z,9.43
2018-12-30T05:49:10.439Z,9.39
2018-12-30T05:50:10.427Z,9.40
2018-12-30T05:51:10.418Z,9.41
2018-12-30T05:52:10.412Z,9.48
2018-12-30T05:53:10.404Z,9.41
2018-12-30T05:54:10.397Z,9.44
2018-12-30T05:55:10.391Z,9.47
2018-12-30T05:56:10.384Z,9.43
2018-12-30T05:57:10.377Z,9.46
2018-12-30T05:58:10.369Z,9.44
2018-12-30T05:59:10.360Z,9.41
2018-12-30T06:00:10.357Z,9.39
2018-12-30T06:01:10.344Z,9.39
2018-12-30T06:02:10.338Z,9.41
2018-12-30T06:03:10.334Z,9.48
2018-12-30T06:04:10.323Z,9.47
2018-12-30T06:05:10.319Z,9.37
2018-12-30T06:06:10.308Z,9.39
2018-12-30T06:07:10.309Z,9.26
2018-12-30T06:08:10.292Z,9.26
2018-12-30T06:09:10.286Z,9.32
2018-12-30T06:10:10.274Z,9.25
2018-12-30T06:11:10.271Z,9.28
2018-12-30T06:12:10.264Z,9.21
2018-12-30T06:13:10.256Z,9.25
2018-12-30T06:14:10.249Z,9.22
2018-12-30T06:15:10.240Z,9.21
2018-12-30T06:16:10.234Z,9.21
2018-12-30T06:17:10.226Z,9.22
2018-12-30T06:18:10.218Z,9.28
2018-12-30T06:19:10.212Z,9.26
2018-12-30T06:20:10.205Z,9.18
2018-12-30T06:21:10.195Z,9.16
2018-12-30T06:22:10.190Z,9.18
2018-12-30T06:23:10.180Z,9.22
2018-12-30T06:24:10.174Z,9.22
2018-12-30T06:25:10.168Z,9.21
2018-12-30T06:26:10.159Z,9.16
2018-12-30T06:27:10.152Z,9.18
2018-12-30T06:28:10.144Z,9.16
2018-12-30T06:29:10.137Z,9.18
2018-12-30T06:30:10.126Z,9.25
2018-12-30T06:31:10.121Z,9.21
2018-12-30T06:32:10.113Z,9.22
2018-12-30T06:33:10.105Z,9.21
2018-12-30T06:34:10.104Z,9.21
2018-12-30T06:35:10.094Z,9.16
2018-12-30T06:36:10.087Z,9.21
2018-12-30T06:37:10.076Z,9.21
2018-12-30T06:38:10.069Z,9.19
2018-12-30T06:39:10.060Z,9.21
2018-12-30T06:40:11.478Z,9.16
2018-12-30T06:41:10.052Z,9.22
2018-12-30T06:42:10.041Z,9.18
2018-12-30T06:43:10.031Z,9.22
2018-12-30T06:44:10.027Z,9.22
2018-12-30T06:45:10.018Z,9.19
2018-12-30T06:46:10.010Z,9.23
2018-12-30T06:47:10.002Z,9.25
2018-12-30T06:48:09.995Z,9.21
2018-12-30T06:49:10.696Z,9.18
2018-12-30T06:50:09.979Z,9.13
2018-12-30T06:51:09.976Z,9.18
2018-12-30T06:52:09.965Z,9.14
2018-12-30T06:53:09.957Z,9.16
2018-12-30T06:54:09.951Z,9.16
2018-12-30T06:55:09.943Z,9.06
2018-12-30T06:56:09.935Z,9.18
2018-12-30T06:57:09.926Z,9.10
2018-12-30T06:58:09.920Z,9.08
2018-12-30T06:59:09.912Z,9.02
2018-12-30T07:00:09.906Z,9.08
2018-12-30T07:01:09.896Z,9.04
2018-12-30T07:02:09.943Z,9.00
2018-12-30T07:03:09.881Z,9.13
2018-12-30T07:04:09.882Z,9.03
2018-12-30T07:05:09.869Z,9.03
2018-12-30T07:06:09.859Z,9.18
2018-12-30T07:07:09.851Z,9.08
2018-12-30T07:08:09.847Z,9.16
2018-12-30T07:09:09.837Z,9.08
2018-12-30T07:10:09.827Z,9.03
2018-12-30T07:11:09.823Z,9.18
2018-12-30T07:12:09.817Z,9.13
2018-12-30T07:13:09.805Z,9.19
2018-12-30T07:14:09.799Z,9.23
2018-12-30T07:15:09.788Z,9.16
2018-12-30T07:16:09.784Z,9.14
2018-12-30T07:17:09.777Z,9.19
2018-12-30T07:18:09.770Z,9.22
2018-12-30T07:19:09.761Z,9.26
2018-12-30T07:20:09.752Z,9.25
2018-12-30T07:21:09.747Z,9.25
2018-12-30T07:22:09.737Z,9.14
2018-12-30T07:23:09.731Z,9.18
2018-12-30T07:24:09.722Z,9.23
2018-12-30T07:25:09.718Z,9.18
2018-12-30T07:26:09.712Z,9.16
2018-12-30T07:27:09.703Z,9.25
2018-12-30T07:28:09.693Z,9.18
2018-12-30T07:29:09.693Z,9.19
2018-12-30T07:30:09.679Z,9.25
2018-12-30T07:31:09.676Z,9.22
2018-12-30T07:32:09.665Z,9.25
2018-12-30T07:33:09.658Z,9.26
2018-12-30T07:34:09.652Z,9.26
2018-12-30T07:35:09.636Z,9.19
2018-12-30T07:36:09.635Z,9.16
2018-12-30T07:37:09.629Z,9.32
2018-12-30T07:38:09.618Z,9.31
2018-12-30T07:39:09.637Z,9.26
2018-12-30T07:40:09.606Z,9.28
2018-12-30T07:41:09.598Z,9.31
2018-12-30T07:42:09.590Z,9.26
2018-12-30T07:43:09.582Z,9.25
2018-12-30T07:44:09.576Z,9.23
2018-12-30T07:45:09.563Z,9.19
2018-12-30T07:46:09.559Z,9.21
2018-12-30T07:47:09.554Z,9.21
2018-12-30T07:48:09.549Z,9.23
2018-12-30T07:49:09.540Z,9.28
2018-12-30T07:50:09.531Z,9.34
2018-12-30T07:51:09.524Z,9.37
2018-12-30T07:52:09.526Z,9.25
2018-12-30T07:53:13.741Z,9.31
2018-12-30T07:54:09.503Z,9.43
2018-12-30T07:55:09.494Z,9.26
2018-12-30T07:56:09.486Z,9.29
2018-12-30T07:57:09.478Z,9.43
2018-12-30T07:58:09.473Z,9.40
2018-12-30T07:59:09.465Z,9.41
2018-12-30T08:00:09.457Z,9.43
2018-12-30T08:01:09.447Z,9.46
2018-12-30T08:02:09.441Z,9.41
2018-12-30T08:03:09.436Z,9.36
2018-12-30T08:04:09.430Z,9.37
2018-12-30T08:05:09.417Z,9.44
2018-12-30T08:06:09.412Z,9.46
2018-12-30T08:07:09.403Z,9.47
2018-12-30T08:08:09.397Z,9.43
2018-12-30T08:09:09.390Z,9.48
2018-12-30T08:10:09.382Z,9.44
2018-12-30T08:11:09.377Z,9.43
2018-12-30T08:12:09.366Z,9.46
2018-12-30T08:13:09.362Z,9.44
2018-12-30T08:14:09.354Z,9.48
2018-12-30T08:15:09.346Z,9.46
2018-12-30T08:16:09.341Z,9.44
2018-12-30T08:17:09.332Z,9.39
2018-12-30T08:18:09.325Z,9.44
2018-12-30T08:19:09.317Z,9.39
2018-12-30T08:20:09.313Z,9.40
2018-12-30T08:21:09.303Z,9.37
2018-12-30T08:22:09.296Z,9.37
2018-12-30T08:23:09.288Z,9.43
2018-12-30T08:24:09.280Z,9.39
2018-12-30T08:25:09.273Z,9.44
2018-12-30T08:26:09.271Z,9.40
2018-12-30T08:27:09.260Z,9.46
2018-12-30T08:28:09.252Z,9.48
2018-12-30T08:29:09.246Z,9.46
2018-12-30T08:30:09.242Z,9.46
2018-12-30T08:31:09.236Z,9.43
2018-12-30T08:32:09.225Z,9.46
2018-12-30T08:33:09.217Z,9.41
2018-12-30T08:34:09.210Z,9.59
2018-12-30T08:35:09.201Z,9.50
2018-12-30T08:36:09.193Z,9.56
2018-12-30T08:37:09.188Z,9.65
2018-12-30T08:38:09.185Z,9.62
2018-12-30T08:39:09.172Z,9.56
2018-12-30T08:40:09.170Z,9.54
2018-12-30T08:41:09.158Z,9.54
2018-12-30T08:42:09.151Z,9.54
2018-12-30T08:43:09.144Z,9.56
2018-12-30T08:44:09.146Z,9.48
2018-12-30T08:45:09.133Z,9.44
2018-12-30T08:46:09.122Z,9.51
2018-12-30T08:47:09.115Z,9.51
2018-12-30T08:48:09.108Z,9.54
2018-12-30T08:49:09.101Z,9.54
2018-12-30T08:50:09.094Z,9.54
2018-12-30T08:51:10.332Z,9.66
2018-12-30T08:52:09.080Z,9.59
2018-12-30T08:53:09.073Z,9.54
2018-12-30T08:54:09.067Z,9.62
2018-12-30T08:55:09.118Z,9.58
2018-12-30T08:56:09.058Z,9.61
2018-12-30T08:57:09.043Z,9.51
2018-12-30T08:58:09.037Z,9.58
2018-12-30T08:59:09.032Z,9.48
2018-12-30T09:00:09.022Z,9.48
2018-12-30T09:01:09.016Z,9.51
2018-12-30T09:02:09.008Z,9.61
2018-12-30T09:03:09.003Z,9.51
2018-12-30T09:04:08.993Z,9.65
2018-12-30T09:05:08.987Z,9.72
2018-12-30T09:06:08.981Z,9.72
2018-12-30T09:07:08.976Z,9.74
2018-12-30T09:08:08.967Z,9.69
2018-12-30T09:09:08.952Z,9.80
2018-12-30T09:10:08.950Z,9.82
2018-12-30T09:11:08.945Z,9.86
2018-12-30T09:12:08.937Z,9.86
2018-12-30T09:13:08.932Z,9.84
2018-12-30T09:14:08.924Z,9.89
2018-12-30T09:15:08.919Z,9.89
2018-12-30T09:16:08.913Z,9.92
2018-12-30T09:17:08.963Z,9.82
2018-12-30T09:18:08.895Z,9.87
2018-12-30T09:19:08.890Z,9.80
2018-12-30T09:20:08.882Z,9.91
2018-12-30T09:21:08.876Z,9.83
2018-12-30T09:22:08.869Z,9.80
2018-12-30T09:23:08.863Z,9.84
2018-12-30T09:24:08.855Z,9.84
2018-12-30T09:25:08.845Z,9.83
2018-12-30T09:26:08.841Z,9.91
2018-12-30T09:27:08.834Z,9.95
2018-12-30T09:28:08.827Z,9.89
2018-12-30T09:29:08.820Z,9.83
2018-12-30T09:30:08.814Z,9.94
2018-12-30T09:31:08.812Z,9.99
2018-12-30T09:32:08.802Z,9.99
2018-12-30T09:33:08.790Z,10.01
2018-12-30T09:34:08.786Z,10.05
2018-12-30T09:35:08.779Z,9.97
2018-12-30T09:36:08.775Z,9.98
2018-12-30T09:37:08.768Z,9.99
2018-12-30T09:38:08.759Z,10.01
2018-12-30T09:39:08.753Z,10.02
2018-12-30T09:40:08.745Z,10.02
2018-12-30T09:41:08.741Z,10.02
2018-12-30T09:42:08.731Z,10.09
2018-12-30T09:43:08.724Z,10.05
2018-12-30T09:44:08.718Z,10.09
2018-12-30T09:45:08.716Z,10.04
2018-12-30T09:46:08.707Z,10.04
2018-12-30T09:47:08.700Z,10.07
2018-12-30T09:48:08.691Z,10.10
2018-12-30T09:49:08.685Z,10.07
2018-12-30T09:50:08.676Z,10.22
2018-12-30T09:51:08.670Z,10.19
2018-12-30T09:52:08.669Z,10.20
2018-12-30T09:53:08.656Z,10.23
2018-12-30T09:54:08.651Z,10.25
2018-12-30T09:55:08.644Z,10.31
2018-12-30T09:56:08.637Z,10.26
2018-12-30T09:57:08.633Z,10.25
2018-12-30T09:58:08.626Z,10.22
2018-12-30T09:59:08.616Z,10.17
2018-12-30T10:00:08.612Z,10.20
2018-12-30T10:01:08.608Z,10.17
2018-12-30T10:02:08.597Z,10.19
2018-12-30T10:03:08.591Z,10.17
2018-12-30T10:04:08.584Z,10.25
2018-12-30T10:05:08.584Z,10.22
2018-12-30T10:06:08.570Z,10.33
2018-12-30T10:07:08.565Z,10.22
2018-12-30T10:08:08.556Z,10.19
2018-12-30T10:09:08.557Z,10.22
2018-12-30T10:10:08.543Z,10.19
2018-12-30T10:11:08.549Z,10.20
2018-12-30T10:12:08.530Z,10.17
2018-12-30T10:13:08.523Z,10.26
2018-12-30T10:14:08.521Z,10.30
2018-12-30T10:15:09.941Z,10.37
2018-12-30T10:16:08.506Z,10.33
2018-12-30T10:17:08.497Z,10.40
2018-12-30T10:18:08.491Z,10.46
2018-12-30T10:19:08.488Z,10.38
2018-12-30T10:20:08.479Z,10.42
2018-12-30T10:21:08.472Z,10.35
2018-12-30T10:22:08.466Z,10.37
2018-12-30T10:23:08.463Z,10.44
2018-12-30T10:24:08.453Z,10.33
2018-12-30T10:25:08.445Z,10.35
2018-12-30T10:26:08.438Z,10.37
2018-12-30T10:27:08.433Z,10.41
2018-12-30T10:28:08.428Z,10.40
2018-12-30T10:29:08.422Z,10.49
2018-12-30T10:30:08.413Z,10.54
2018-12-30T10:31:08.412Z,10.48
2018-12-30T10:32:08.407Z,10.54
2018-12-30T10:33:08.395Z,10.56
2018-12-30T10:34:08.387Z,10.61
2018-12-30T10:35:08.381Z,10.60
2018-12-30T10:36:08.378Z,10.60
2018-12-30T10:37:08.368Z,10.48
2018-12-30T10:38:08.363Z,10.42
2018-12-30T10:39:08.356Z,10.51
2018-12-30T10:40:08.350Z,10.46
2018-12-30T10:41:08.342Z,10.48
2018-12-30T10:42:08.338Z,10.54
2018-12-30T10:43:08.332Z,10.51
2018-12-30T10:44:08.327Z,10.48
2018-12-30T10:45:08.327Z,10.49
2018-12-30T10:46:08.312Z,10.53
2018-12-30T10:47:08.313Z,10.38
2018-12-30T10:48:08.299Z,10.54
2018-12-30T10:49:08.290Z,10.46
2018-12-30T10:50:08.288Z,10.35
2018-12-30T10:51:08.281Z,10.49
2018-12-30T10:52:08.277Z,10.37
2018-12-30T10:53:08.265Z,10.37
2018-12-30T10:54:08.261Z,10.42
2018-12-30T10:55:08.256Z,10.53
2018-12-30T10:56:08.249Z,10.42
2018-12-30T10:57:08.239Z,10.40
2018-12-30T10:58:08.235Z,10.34
2018-12-30T10:59:08.232Z,10.42
2018-12-30T11:00:08.223Z,10.40
2018-12-30T11:01:08.215Z,10.48
2018-12-30T11:02:08.211Z,10.40
2018-12-30T11:03:08.204Z,10.42
2018-12-30T11:04:08.199Z,10.48
2018-12-30T11:05:08.195Z,10.46
2018-12-30T11:06:08.185Z,10.48
2018-12-30T11:07:08.182Z,10.49
2018-12-30T11:08:08.174Z,10.51
2018-12-30T11:09:08.170Z,10.54
2018-12-30T11:10:08.159Z,10.56
2018-12-30T11:11:08.153Z,10.44
2018-12-30T11:12:08.147Z,10.40
2018-12-30T11:13:08.139Z,10.41
2018-12-30T11:14:08.134Z,10.38
2018-12-30T11:15:08.129Z,10.49
2018-12-30T11:16:08.123Z,10.49
2018-12-30T11:17:08.114Z,10.51
2018-12-30T11:18:08.109Z,10.48
2018-12-30T11:19:08.102Z,10.60
2018-12-30T11:20:08.101Z,10.60
2018-12-30T11:21:08.091Z,10.68
2018-12-30T11:22:08.084Z,10.63
2018-12-30T11:23:08.076Z,10.49
2018-12-30T11:24:08.789Z,10.49
2018-12-30T11:25:08.065Z,10.53
2018-12-30T11:26:08.059Z,10.51
2018-12-30T11:27:08.051Z,10.53
2018-12-30T11:28:08.044Z,10.46
2018-12-30T11:29:08.038Z,10.48
2018-12-30T11:30:08.033Z,10.49
2018-12-30T11:31:08.026Z,10.49
2018-12-30T11:32:08.019Z,10.48
2018-12-30T11:33:08.013Z,10.53
2018-12-30T11:34:08.006Z,10.53
2018-12-30T11:35:08.002Z,10.44
2018-12-30T11:36:07.991Z,10.49
2018-12-30T11:37:07.987Z,10.49
2018-12-30T11:38:07.978Z,10.57
2018-12-30T11:39:07.975Z,10.53
2018-12-30T11:40:07.967Z,10.56
2018-12-30T11:41:07.963Z,10.68
2018-12-30T11:42:07.953Z,10.69
2018-12-30T11:43:07.952Z,10.68
2018-12-30T11:44:07.942Z,10.63
2018-12-30T11:45:07.935Z,10.64
2018-12-30T11:46:07.932Z,10.68
2018-12-30T11:47:07.935Z,10.71
2018-12-30T11:48:07.919Z,10.68
2018-12-30T11:49:07.910Z,10.75
2018-12-30T11:50:07.905Z,10.74
2018-12-30T11:51:07.899Z,10.79
2018-12-30T11:52:07.895Z,10.81
2018-12-30T11:53:07.887Z,10.82
2018-12-30T11:54:07.884Z,10.86
2018-12-30T11:55:07.879Z,10.86
2018-12-30T11:56:07.868Z,10.99
2018-12-30T11:57:07.864Z,11.02
2018-12-30T11:58:07.854Z,10.93
2018-12-30T11:59:09.041Z,10.92
2018-12-30T12:00:07.846Z,10.93
2018-12-30T12:01:07.844Z,10.93
2018-12-30T12:02:07.833Z,10.90
2018-12-30T12:03:07.826Z,10.90
2018-12-30T12:04:07.821Z,10.79
2018-12-30T12:05:07.815Z,10.89
2018-12-30T12:06:07.807Z,10.79
2018-12-30T12:07:07.801Z,10.69
2018-12-30T12:08:07.796Z,10.68
2018-12-30T12:09:07.793Z,10.71
2018-12-30T12:10:07.783Z,10.76
2018-12-30T12:11:07.776Z,10.76
2018-12-30T12:12:07.771Z,10.71
2018-12-30T12:13:07.762Z,10.67
2018-12-30T12:14:07.758Z,10.67
2018-12-30T12:15:07.754Z,10.68
2018-12-30T12:16:07.748Z,10.67
2018-12-30T12:17:07.739Z,10.68
2018-12-30T12:18:07.738Z,10.64
2018-12-30T12:19:07.727Z,10.68
2018-12-30T12:20:07.722Z,10.64
2018-12-30T12:21:07.716Z,10.63
2018-12-30T12:22:07.709Z,10.56
2018-12-30T12:23:07.704Z,10.59
2018-12-30T12:24:07.697Z,10.60
2018-12-30T12:25:07.690Z,10.57
2018-12-30T12:26:07.681Z,10.51
2018-12-30T12:27:07.686Z,10.48
2018-12-30T12:28:07.677Z,10.54
2018-12-30T12:29:07.663Z,10.49
2018-12-30T12:30:07.659Z,10.48
2018-12-30T12:31:07.652Z,10.46
2018-12-30T12:32:07.648Z,10.56
2018-12-30T12:33:07.636Z,10.54
2018-12-30T12:34:07.631Z,10.54
2018-12-30T12:35:07.627Z,10.49
2018-12-30T12:36:07.620Z,10.37
2018-12-30T12:37:07.612Z,10.53
2018-12-30T12:38:07.608Z,10.44
2018-12-30T12:39:07.601Z,10.53
2018-12-30T12:40:07.595Z,10.48
2018-12-30T12:41:07.590Z,10.48
2018-12-30T12:42:07.582Z,10.60
2018-12-30T12:43:07.582Z,10.56
2018-12-30T12:44:07.572Z,10.61
2018-12-30T12:45:07.564Z,10.54
2018-12-30T12:46:07.570Z,10.46
2018-12-30T12:47:07.550Z,10.49
2018-12-30T12:48:07.549Z,10.51
2018-12-30T12:49:07.534Z,10.54
2018-12-30T12:50:07.530Z,10.42
2018-12-30T12:51:07.524Z,10.42
2018-12-30T12:52:07.520Z,10.49
2018-12-30T12:53:07.512Z,10.49
2018-12-30T12:54:07.504Z,10.54
2018-12-30T12:55:07.498Z,10.56
2018-12-30T12:56:07.493Z,10.61
2018-12-30T12:57:07.485Z,10.59
2018-12-30T12:58:07.485Z,10.68
2018-12-30T12:59:07.474Z,10.61
2018-12-30T13:00:07.467Z,10.63
2018-12-30T13:01:07.462Z,10.63
2018-12-30T13:02:07.449Z,10.59
2018-12-30T13:03:07.447Z,10.57
2018-12-30T13:04:07.439Z,10.68
2018-12-30T13:05:07.435Z,10.67
2018-12-30T13:06:07.427Z,10.64
2018-12-30T13:07:07.428Z,10.68
2018-12-30T13:08:07.424Z,10.74
2018-12-30T13:09:07.410Z,10.64
2018-12-30T13:10:07.401Z,10.74
2018-12-30T13:11:07.414Z,10.74